AirNav   Air Wisconsin pilot careers
 
 917 users online  

12LL Lambdins Field Airport
Wolf Lake, Illinois, USA

GOING TO WOLF LAKE?


FAA INFORMATION EFFECTIVE 23 MAY 2019

Location

FAA Identifier: 12LL
Lat/Long: 37-32-25.1770N / 089-29-10.3450W
37-32.419617N / 089-29.172417W
37.5403269 / -89.4862069
(estimated)
Elevation: 350 ft. / 107 m (estimated)
Variation: 01E (1985)
From city: 3 miles NW of WOLF LAKE, IL
Time zone: UTC -5 (UTC -6 during Standard Time)
Zip code: 62998

Airport Operations

Airport use: Private use. Permission required prior to landing
Activation date: 08/1974
Control tower: no
ARTCC: MEMPHIS CENTER
FSS: COLUMBIA FLIGHT SERVICE STATION
Attendance: 0700-2000
Wind indicator: yes
Segmented circle: no

Airport Communications

WX ASOS at MDH (18 nm NE): PHONE 618-529-1821
WX ASOS at CGI (19 nm S): 120.55 (573-335-3811)

Nearby radio navigation aids

VOR radial/distance  VOR name  Freq  Var
CGIr014/19.2CAPE GIRARDEAU VOR/DME112.9002W
MWAr236/25.9MARION VOR/DME110.4004E
FAMr102/36.4FARMINGTON VORTAC115.7001E

 
NDB name  Hdg/Dist  Freq  Var  ID
CAIRO336/31.439700ECIR -.-. .. .-.

Airport Services

Airframe service: NONE
Powerplant service: NONE

Runway Information

Runway 9/27

Dimensions: 2200 x 120 ft. / 671 x 37 m
Surface: turf
RUNWAY 9  RUNWAY 27
Traffic pattern: leftleft

Airport Ownership and Management from official FAA records

Ownership: Privately-owned
Owner: CHARLES LAMBDIN
1011 APPLEWOOD LN
ANNA, IL 62906
Phone (618) 833-8099
Manager: CHARLES LAMBDIN
1011 APPLEWOOD LN
ANNA, IL 62906
Phone (618) 833-8099

Instrument Procedures

There are no published instrument procedures at 12LL.

Some nearby airports with instrument procedures:

KMDH - Southern Illinois Airport (18 nm NE)
KCGI - Cape Girardeau Regional Airport (19 nm S)
KMWA - Veterans Airport of Southern Illinois (26 nm NE)
KPCD - Perryville Regional Airport (27 nm NW)
KPJY - Pinckneyville-Du Quoin Airport (27 nm N)
 
Loc | Ops | Rwys | IFR | FBO | Links
Com | Nav | Svcs | Stats | Notes
Area around 12LL (Lambdins Field Airport)
 
Road maps at: MapQuest Bing Google
 
Aerial photo
No photo
 
Sectional chart

 
Airport distance calculator
Flying to Lambdins Field Airport? Find the distance to fly.

From to 12LL

Sunrise and sunset
Times for 16-Jun-2019
 Local
(UTC-5)
 Zulu
(UTC)
Morning civil twilight05:0610:06
Sunrise05:3710:37
Sunset20:2001:20
Evening civil twilight20:5101:51

Current date and time
Zulu (UTC)  16-Jun-2019 17:45:26
Local (UTC-5)  16-Jun-2019 12:45:26
 
METAR
KMDH 
18nm NE 
161652Z 22005KT 10SM FEW055 27/23 A2986 RMK AO2 SLP108 T02670228 $
KCGI 
19nm S 
161653Z 20010KT 10SM SCT024 BKN034 30/22 A2985 RMK AO2 SLP104 T03000222
KMWA 
26nm NE 
161645Z 13008KT 10SM SCT120 27/21 A2988
KPCD 
27nm NW 
161735Z AUTO 22006KT 10SM CLR 29/20 A2985 RMK AO2 T02860195
KCIR 
31nm SE 
161735Z AUTO 19007KT 10SM CLR 29/23 A2987 RMK AO2 T02860231
TAF
KCGI 
19nm S 
161517Z 1615/1712 24012G20KT P6SM BKN021 FM161700 22012G20KT P6SM VCTS SCT025CB BKN050 FM170000 22008KT P6SM BKN040 FM170500 VRB03KT P6SM SCT040 BKN070
NOTAMs
Click for the latest NOTAMs
NOTAMs are issued by the DoD/FAA and will open in a separate window not controlled by AirNav.

 

 
 

Would you like to see your business listed on this page?

 If your business provides an interesting product or service to pilots, flight crews, aircraft, or users of the Lambdins Field Airport, you should consider listing it here.  To start the listing process, click on the button below
 
Add a business
 

Other Pages about Lambdins Field Airport

Update a link
 
Copyright © AirNav, LLC. All rights reserved. Privacy Policy  Contact